Time;durP1;ratioP1;P1;durP2;ratioP2;P2;SDS_P1;SDS_P2;PMS_P1;PMS_P2;Temp;Humidity;BMP_temperature;BMP_pressure;BME280_temperature;BME280_humidity;BME280_pressure;Samples;Min_cycle;Max_cycle;Signal;HPM_P1;HPM_P2
2023/07/22 00:01:31;;;;;;;;;;;14.60;99.80;;;;;;4991337;28;19930;-41
2023/07/22 00:03:58;;;;;;;;;;;14.60;99.90;;;;;;4974918;28;19921;-42
2023/07/22 00:06:25;;;;;;;;;;;14.60;99.90;;;;;;4989296;28;19928;-42
2023/07/22 00:08:51;;;;;;;;;;;14.60;99.90;;;;;;4969461;28;20042;-42
2023/07/22 00:11:18;;;;;;;;;;;14.50;99.90;;;;;;4969465;28;19922;-42
2023/07/22 00:13:46;;;;;;;;;;;14.50;99.90;;;;;;4969269;28;19926;-41
2023/07/22 00:16:13;;;;;;;;;;;14.50;99.90;;;;;;4990865;28;20056;-42
2023/07/22 00:18:39;;;;;;;;;;;14.50;99.90;;;;;;4986499;28;19922;-42
2023/07/22 00:21:08;;;;;;;;;;;14.40;99.90;;;;;;4991155;28;20366;-42
2023/07/22 00:23:35;;;;;;;;;;;14.40;99.90;;;;;;4982580;28;19929;-42
2023/07/22 00:26:02;;;;;;;;;;;14.40;99.90;;;;;;4971523;28;19922;-42
2023/07/22 00:28:29;;;;;;;;;;;14.40;99.90;;;;;;4989802;28;19922;-42
2023/07/22 00:30:58;;;;;;;;;;;14.40;99.90;;;;;;4971568;28;19929;-40
2023/07/22 00:33:24;;;;;;;;;;;14.30;99.90;;;;;;4986122;28;19922;-42
2023/07/22 00:35:51;;;;;;;;;;;14.40;99.80;;;;;;4982686;28;19933;-41
2023/07/22 00:38:18;;;;;;;;;;;14.30;99.90;;;;;;4985925;28;19921;-42
2023/07/22 00:40:45;;;;;;;;;;;14.30;99.90;;;;;;4990936;28;19969;-41
2023/07/22 00:43:12;;;;;;;;;;;14.30;99.90;;;;;;4980032;28;19972;-41
2023/07/22 00:45:38;;;;;;;;;;;14.30;99.90;;;;;;4971345;28;19928;-42
2023/07/22 00:48:07;;;;;;;;;;;14.30;99.90;;;;;;4990436;28;19929;-41
2023/07/22 00:50:34;;;;;;;;;;;14.30;99.90;;;;;;4969369;28;20286;-41
2023/07/22 00:53:00;;;;;;;;;;;14.20;99.90;;;;;;4966175;28;19922;-41
2023/07/22 00:55:27;;;;;;;;;;;14.20;99.90;;;;;;4966409;28;19988;-42
2023/07/22 00:57:54;;;;;;;;;;;14.20;99.90;;;;;;4992913;28;19921;-42
2023/07/22 01:00:21;;;;;;;;;;;14.10;99.90;;;;;;4971334;28;19992;-41
2023/07/22 01:02:48;;;;;;;;;;;14.10;99.90;;;;;;4963939;28;19933;-42
2023/07/22 01:05:16;;;;;;;;;;;14.10;99.90;;;;;;4986587;28;19921;-41
2023/07/22 01:07:43;;;;;;;;;;;14.10;99.90;;;;;;4975069;28;19928;-43
2023/07/22 01:10:10;;;;;;;;;;;14.10;99.90;;;;;;4979666;28;19980;-40
2023/07/22 01:12:38;;;;;;;;;;;14.10;99.90;;;;;;4986349;28;20030;-41
2023/07/22 01:15:07;;;;;;;;;;;14.10;99.90;;;;;;4987862;28;19929;-42
2023/07/22 01:17:34;;;;;;;;;;;14.10;99.90;;;;;;4989203;28;19921;-42
2023/07/22 01:20:01;;;;;;;;;;;14.10;99.90;;;;;;4981217;28;19972;-41
2023/07/22 01:22:29;;;;;;;;;;;14.10;99.90;;;;;;4981345;28;20000;-42
2023/07/22 01:24:58;;;;;;;;;;;14.10;99.90;;;;;;4988539;28;20374;-41
2023/07/22 01:27:24;;;;;;;;;;;14.10;99.90;;;;;;4982806;28;19933;-41
2023/07/22 01:29:51;;;;;;;;;;;14.10;99.90;;;;;;4975685;28;20040;-42
2023/07/22 01:32:18;;;;;;;;;;;14.10;99.90;;;;;;4971282;28;20420;-42
2023/07/22 01:34:45;;;;;;;;;;;14.00;99.90;;;;;;4992677;28;19921;-42
2023/07/22 01:37:11;;;;;;;;;;;14.00;99.90;;;;;;4967809;28;20650;-40
2023/07/22 01:39:38;;;;;;;;;;;13.90;99.90;;;;;;4969485;28;20369;-42
2023/07/22 01:42:06;;;;;;;;;;;13.90;99.90;;;;;;4970753;28;20366;-42
2023/07/22 01:44:33;;;;;;;;;;;13.90;99.90;;;;;;4987707;28;19961;-42
2023/07/22 01:47:02;;;;;;;;;;;13.90;99.90;;;;;;4970238;28;19930;-41
2023/07/22 01:49:29;;;;;;;;;;;13.80;99.90;;;;;;4971764;28;20388;-42
2023/07/22 01:51:56;;;;;;;;;;;13.80;99.90;;;;;;4969939;28;19921;-42
2023/07/22 01:54:22;;;;;;;;;;;13.80;99.90;;;;;;4971065;28;20095;-40
2023/07/22 01:56:49;;;;;;;;;;;13.80;99.90;;;;;;4972403;28;19979;-41
2023/07/22 01:59:17;;;;;;;;;;;13.80;99.90;;;;;;4989173;28;19976;-42
2023/07/22 02:01:44;;;;;;;;;;;13.70;99.90;;;;;;4971701;28;19968;-42
2023/07/22 02:04:11;;;;;;;;;;;13.70;99.90;;;;;;4972800;28;19928;-42
2023/07/22 02:06:38;;;;;;;;;;;13.70;99.90;;;;;;4988173;28;19926;-42
2023/07/22 02:09:08;;;;;;;;;;;13.60;99.90;;;;;;4970546;28;19921;-42
2023/07/22 02:11:35;;;;;;;;;;;13.60;99.90;;;;;;4964494;28;19928;-41
2023/07/22 02:14:03;;;;;;;;;;;13.60;99.90;;;;;;4994837;28;20326;-41
2023/07/22 02:16:31;;;;;;;;;;;13.60;99.90;;;;;;4988166;28;20011;-42
2023/07/22 02:18:58;;;;;;;;;;;13.50;99.90;;;;;;4963860;28;20000;-42
2023/07/22 02:21:24;;;;;;;;;;;13.50;99.90;;;;;;4991921;28;19928;-42
2023/07/22 02:23:51;;;;;;;;;;;13.50;99.90;;;;;;4986851;28;19929;-41
2023/07/22 02:26:19;;;;;;;;;;;13.50;99.90;;;;;;4968160;28;19936;-42
2023/07/22 02:28:46;;;;;;;;;;;13.50;99.90;;;;;;4988723;28;20016;-42
2023/07/22 02:31:13;;;;;;;;;;;13.50;99.90;;;;;;4986697;28;19925;-42
2023/07/22 02:33:41;;;;;;;;;;;13.50;99.90;;;;;;4979285;28;20012;-42
2023/07/22 02:36:08;;;;;;;;;;;13.50;99.90;;;;;;4995965;28;20386;-42
2023/07/22 02:38:35;;;;;;;;;;;13.50;99.90;;;;;;4991042;28;19922;-42
2023/07/22 02:41:06;;;;;;;;;;;13.50;99.90;;;;;;4983298;28;20745;-42
2023/07/22 02:43:32;;;;;;;;;;;13.40;99.90;;;;;;4985461;28;19922;-42
2023/07/22 02:46:00;;;;;;;;;;;13.40;99.90;;;;;;4995062;28;20057;-42
2023/07/22 02:48:27;;;;;;;;;;;13.40;99.90;;;;;;4973600;28;19934;-42
2023/07/22 02:50:56;;;;;;;;;;;13.50;99.90;;;;;;4987933;28;20294;-42
2023/07/22 02:53:22;;;;;;;;;;;13.40;99.90;;;;;;4973974;28;20362;-42
2023/07/22 02:55:49;;;;;;;;;;;13.50;99.90;;;;;;4991942;28;19925;-42
2023/07/22 02:58:16;;;;;;;;;;;13.50;99.90;;;;;;4992557;28;20784;-41
2023/07/22 03:00:43;;;;;;;;;;;13.50;99.90;;;;;;4968620;28;19997;-41
2023/07/22 03:03:10;;;;;;;;;;;13.50;99.90;;;;;;4988838;28;21368;-42
2023/07/22 03:05:36;;;;;;;;;;;13.50;99.90;;;;;;4971208;28;19921;-42
2023/07/22 03:08:05;;;;;;;;;;;13.50;99.90;;;;;;4969105;28;20028;-41
2023/07/22 03:10:33;;;;;;;;;;;13.50;99.90;;;;;;4985189;28;19925;-42
2023/07/22 03:13:03;;;;;;;;;;;13.50;99.90;;;;;;4969629;28;20346;-42
2023/07/22 03:15:30;;;;;;;;;;;13.50;99.90;;;;;;4987334;28;20361;-41
2023/07/22 03:17:59;;;;;;;;;;;13.40;99.90;;;;;;4967867;28;20373;-42
2023/07/22 03:20:25;;;;;;;;;;;13.50;99.90;;;;;;4985368;28;20348;-42
2023/07/22 03:22:52;;;;;;;;;;;13.50;99.90;;;;;;4984149;28;19929;-42
2023/07/22 03:25:20;;;;;;;;;;;13.50;99.90;;;;;;4992626;28;19980;-42
2023/07/22 03:27:47;;;;;;;;;;;13.50;99.90;;;;;;4985781;28;19926;-42
2023/07/22 03:30:15;;;;;;;;;;;13.50;99.90;;;;;;4992585;28;20369;-42
2023/07/22 03:32:42;;;;;;;;;;;13.50;99.90;;;;;;4978856;28;19921;-41
2023/07/22 03:35:09;;;;;;;;;;;13.50;99.90;;;;;;4994021;28;20057;-42
2023/07/22 03:37:37;;;;;;;;;;;13.50;99.90;;;;;;4971905;28;19922;-43
2023/07/22 03:40:06;;;;;;;;;;;13.50;99.90;;;;;;4991442;28;19929;-42
2023/07/22 03:42:34;;;;;;;;;;;13.50;99.90;;;;;;4985207;28;19925;-42
2023/07/22 03:45:01;;;;;;;;;;;13.50;99.90;;;;;;4982556;28;20447;-42
2023/07/22 03:47:31;;;;;;;;;;;13.60;99.90;;;;;;4974511;28;20024;-42
2023/07/22 03:49:58;;;;;;;;;;;13.60;99.90;;;;;;4981988;28;19930;-41
2023/07/22 03:52:24;;;;;;;;;;;13.60;99.90;;;;;;4957044;28;19962;-42
2023/07/22 03:54:51;;;;;;;;;;;13.60;99.90;;;;;;4984162;28;19921;-42
2023/07/22 03:57:18;;;;;;;;;;;13.60;99.90;;;;;;4977600;28;19921;-42
2023/07/22 03:59:46;;;;;;;;;;;13.60;99.90;;;;;;4974181;28;19986;-41
2023/07/22 04:02:12;;;;;;;;;;;13.60;99.90;;;;;;4957780;28;20014;-41
2023/07/22 04:04:39;;;;;;;;;;;13.70;99.90;;;;;;4945524;28;20009;-42
2023/07/22 04:07:08;;;;;;;;;;;13.60;99.90;;;;;;4966072;28;19926;-42
2023/07/22 04:09:34;;;;;;;;;;;13.70;99.90;;;;;;4954427;28;19926;-41
2023/07/22 04:12:01;;;;;;;;;;;13.70;99.90;;;;;;4977811;28;20420;-42
2023/07/22 04:14:28;;;;;;;;;;;13.70;99.90;;;;;;4970673;28;19925;-42
2023/07/22 04:16:56;;;;;;;;;;;13.80;99.90;;;;;;4944690;28;20362;-42
2023/07/22 04:19:22;;;;;;;;;;;13.80;99.90;;;;;;4959693;28;19973;-41
2023/07/22 04:21:49;;;;;;;;;;;13.80;99.90;;;;;;4972866;28;19933;-42
2023/07/22 04:24:16;;;;;;;;;;;13.80;99.90;;;;;;4975830;28;19930;-42
2023/07/22 04:26:43;;;;;;;;;;;13.90;99.90;;;;;;4949087;28;19922;-42
2023/07/22 04:29:11;;;;;;;;;;;13.90;99.90;;;;;;4949793;28;20495;-41
2023/07/22 04:31:38;;;;;;;;;;;13.90;99.90;;;;;;4979814;28;20328;-42
2023/07/22 04:34:06;;;;;;;;;;;14.00;99.90;;;;;;4966554;28;19945;-42
2023/07/22 04:36:33;;;;;;;;;;;14.00;99.90;;;;;;4956137;28;21283;-42
2023/07/22 04:39:00;;;;;;;;;;;14.00;99.90;;;;;;4977657;28;19944;-41
2023/07/22 04:41:27;;;;;;;;;;;14.10;99.90;;;;;;4978530;28;20374;-42
2023/07/22 04:43:53;;;;;;;;;;;14.10;99.90;;;;;;4975113;28;20552;-42
2023/07/22 04:46:20;;;;;;;;;;;14.10;99.90;;;;;;4969426;28;19930;-42
2023/07/22 04:48:47;;;;;;;;;;;14.10;99.90;;;;;;4970450;28;19925;-42
2023/07/22 04:51:15;;;;;;;;;;;14.20;99.90;;;;;;4977135;28;20283;-42
2023/07/22 04:53:42;;;;;;;;;;;14.20;99.90;;;;;;4988383;28;19922;-42
2023/07/22 04:56:08;;;;;;;;;;;14.20;99.90;;;;;;4985127;28;19929;-42
2023/07/22 04:58:35;;;;;;;;;;;14.20;99.90;;;;;;4962383;28;19930;-42
2023/07/22 05:01:02;;;;;;;;;;;14.20;99.90;;;;;;4983136;28;19922;-42
2023/07/22 05:03:28;;;;;;;;;;;14.20;99.90;;;;;;4988905;28;19925;-41
2023/07/22 05:05:55;;;;;;;;;;;14.30;99.90;;;;;;4990378;28;19929;-43
2023/07/22 05:08:23;;;;;;;;;;;14.30;99.90;;;;;;4974403;28;19922;-42
2023/07/22 05:10:50;;;;;;;;;;;14.30;99.90;;;;;;4994207;28;19922;-42
2023/07/22 05:13:17;;;;;;;;;;;14.30;99.90;;;;;;4970123;28;19922;-42
2023/07/22 05:15:43;;;;;;;;;;;14.30;99.90;;;;;;4992902;28;19968;-42
2023/07/22 05:18:10;;;;;;;;;;;14.40;99.90;;;;;;4975186;28;19928;-42
2023/07/22 05:20:38;;;;;;;;;;;14.40;99.90;;;;;;4977314;28;19925;-42
2023/07/22 05:23:05;;;;;;;;;;;14.40;99.90;;;;;;4977441;28;19922;-42
2023/07/22 05:25:33;;;;;;;;;;;14.40;99.90;;;;;;4975195;28;19925;-42
2023/07/22 05:27:59;;;;;;;;;;;14.40;99.90;;;;;;4993948;28;20297;-42
2023/07/22 05:30:26;;;;;;;;;;;14.40;99.90;;;;;;4994168;28;19955;-42
2023/07/22 05:32:53;;;;;;;;;;;14.50;99.90;;;;;;4975053;28;19957;-42
2023/07/22 05:35:20;;;;;;;;;;;14.50;99.90;;;;;;4981111;28;19930;-42
2023/07/22 05:37:46;;;;;;;;;;;14.50;99.90;;;;;;4970118;28;19930;-42
2023/07/22 05:40:13;;;;;;;;;;;14.50;99.90;;;;;;4970705;28;19926;-42
2023/07/22 05:42:42;;;;;;;;;;;14.50;99.90;;;;;;4993820;28;19921;-42
2023/07/22 05:45:13;;;;;;;;;;;14.50;99.90;;;;;;4992946;28;19932;-42
2023/07/22 05:47:40;;;;;;;;;;;14.50;99.90;;;;;;4989751;28;19932;-43
2023/07/22 05:50:07;;;;;;;;;;;14.60;99.90;;;;;;4987741;28;20448;-41
2023/07/22 05:52:34;;;;;;;;;;;14.60;99.90;;;;;;4991236;28;19922;-42
2023/07/22 05:55:00;;;;;;;;;;;14.50;99.90;;;;;;4974984;28;19969;-42
2023/07/22 05:57:27;;;;;;;;;;;14.60;99.90;;;;;;4993309;28;19921;-42
2023/07/22 05:59:55;;;;;;;;;;;14.60;99.90;;;;;;4962609;28;19949;-42
2023/07/22 06:02:22;;;;;;;;;;;14.60;99.90;;;;;;4987670;28;19993;-42
2023/07/22 06:04:49;;;;;;;;;;;14.60;99.90;;;;;;4991966;28;19926;-42
2023/07/22 06:07:15;;;;;;;;;;;14.60;99.90;;;;;;4974460;28;19921;-42
2023/07/22 06:09:42;;;;;;;;;;;14.60;99.90;;;;;;4993548;28;19922;-43
2023/07/22 06:12:09;;;;;;;;;;;14.70;99.90;;;;;;4974490;28;19964;-42
2023/07/22 06:14:35;;;;;;;;;;;14.70;99.90;;;;;;4974221;28;19925;-42
2023/07/22 06:17:03;;;;;;;;;;;14.80;99.90;;;;;;4991833;28;20000;-42
2023/07/22 06:19:30;;;;;;;;;;;14.80;99.90;;;;;;4991481;28;20293;-42
2023/07/22 06:21:57;;;;;;;;;;;14.90;99.90;;;;;;4991933;28;19926;-42
2023/07/22 06:24:23;;;;;;;;;;;14.90;99.90;;;;;;4975931;28;19925;-42
2023/07/22 06:26:50;;;;;;;;;;;14.90;99.90;;;;;;4991713;28;19922;-42
2023/07/22 06:29:17;;;;;;;;;;;15.00;99.90;;;;;;4991088;28;20000;-42
2023/07/22 06:31:44;;;;;;;;;;;15.00;99.90;;;;;;4991285;28;19929;-42
2023/07/22 06:34:12;;;;;;;;;;;15.10;99.90;;;;;;4991104;28;19926;-42
2023/07/22 06:36:38;;;;;;;;;;;15.10;99.90;;;;;;4993470;28;20405;-42
2023/07/22 06:39:05;;;;;;;;;;;15.20;99.90;;;;;;4991145;28;20430;-42
2023/07/22 06:41:32;;;;;;;;;;;15.30;99.90;;;;;;4974251;28;19929;-42
2023/07/22 06:43:58;;;;;;;;;;;15.30;99.90;;;;;;4991040;28;20329;-42
2023/07/22 06:46:25;;;;;;;;;;;15.40;99.90;;;;;;4973775;28;19965;-41
2023/07/22 06:48:52;;;;;;;;;;;15.40;99.90;;;;;;4993441;28;20333;-41
2023/07/22 06:51:20;;;;;;;;;;;15.60;99.90;;;;;;4974407;28;20366;-42
2023/07/22 06:53:46;;;;;;;;;;;15.60;99.90;;;;;;4974183;28;19925;-42
2023/07/22 06:56:13;;;;;;;;;;;15.70;99.90;;;;;;4990866;28;19961;-42
2023/07/22 06:58:40;;;;;;;;;;;15.80;99.90;;;;;;4989049;28;20470;-42
2023/07/22 07:01:06;;;;;;;;;;;15.90;99.90;;;;;;4972304;28;20433;-41
2023/07/22 07:03:33;;;;;;;;;;;15.90;99.90;;;;;;4989275;28;19922;-42
2023/07/22 07:05:59;;;;;;;;;;;16.00;99.90;;;;;;4995624;28;19922;-42
2023/07/22 07:08:28;;;;;;;;;;;16.10;99.90;;;;;;4995643;28;20027;-42
2023/07/22 07:10:54;;;;;;;;;;;16.10;99.90;;;;;;4996735;28;20287;-42
2023/07/22 07:13:21;;;;;;;;;;;16.20;99.90;;;;;;4996601;28;19921;-42
2023/07/22 07:15:49;;;;;;;;;;;16.30;99.90;;;;;;4979275;28;19921;-42
2023/07/22 07:18:16;;;;;;;;;;;16.40;99.90;;;;;;4978619;28;19922;-42
2023/07/22 07:20:42;;;;;;;;;;;16.30;99.90;;;;;;4996917;28;20294;-42
2023/07/22 07:23:09;;;;;;;;;;;16.40;99.90;;;;;;4977778;28;19932;-42
2023/07/22 07:25:37;;;;;;;;;;;16.50;99.90;;;;;;4996461;28;19928;-42
2023/07/22 07:28:04;;;;;;;;;;;16.60;99.90;;;;;;4996472;28;20310;-42
2023/07/22 07:30:31;;;;;;;;;;;16.60;99.90;;;;;;4996526;28;19921;-42
2023/07/22 07:32:58;;;;;;;;;;;16.80;99.90;;;;;;4979170;28;19921;-42
2023/07/22 07:35:25;;;;;;;;;;;16.90;99.90;;;;;;4980661;28;19922;-41
2023/07/22 07:37:52;;;;;;;;;;;17.00;99.90;;;;;;4986697;28;20297;-41
2023/07/22 07:40:18;;;;;;;;;;;17.10;99.90;;;;;;4979062;28;19925;-42
2023/07/22 07:42:46;;;;;;;;;;;17.20;99.90;;;;;;4979025;28;19984;-42
2023/07/22 07:45:13;;;;;;;;;;;17.30;99.90;;;;;;4988304;28;19922;-42
2023/07/22 07:47:40;;;;;;;;;;;17.50;99.90;;;;;;4958999;28;20460;-43
2023/07/22 07:50:07;;;;;;;;;;;17.60;99.90;;;;;;4976736;28;19922;-42
2023/07/22 07:52:34;;;;;;;;;;;17.70;99.90;;;;;;4976373;28;19929;-42
2023/07/22 07:55:01;;;;;;;;;;;17.90;99.90;;;;;;4985175;28;19929;-41
2023/07/22 07:57:28;;;;;;;;;;;18.00;99.90;;;;;;4995816;28;20371;-43
2023/07/22 07:59:56;;;;;;;;;;;18.10;99.90;;;;;;4978612;28;19921;-42
2023/07/22 08:02:22;;;;;;;;;;;18.10;99.90;;;;;;4996044;28;19921;-42
2023/07/22 08:04:49;;;;;;;;;;;18.20;99.90;;;;;;4995850;28;19926;-42
2023/07/22 08:07:16;;;;;;;;;;;18.30;99.90;;;;;;4975924;28;20444;-42
2023/07/22 08:09:43;;;;;;;;;;;18.30;99.90;;;;;;4995705;28;19926;-43
2023/07/22 08:12:09;;;;;;;;;;;18.40;99.90;;;;;;4995554;28;19968;-42
2023/07/22 08:14:36;;;;;;;;;;;18.50;99.90;;;;;;4994587;28;19953;-42
2023/07/22 08:17:04;;;;;;;;;;;18.60;99.90;;;;;;4991506;28;20338;-42
2023/07/22 08:19:31;;;;;;;;;;;18.70;99.90;;;;;;4976713;28;19925;-43
2023/07/22 08:21:57;;;;;;;;;;;18.80;99.90;;;;;;4986253;28;19929;-42
2023/07/22 08:24:24;;;;;;;;;;;18.80;99.90;;;;;;4974910;28;19929;-42
2023/07/22 08:26:51;;;;;;;;;;;18.90;99.90;;;;;;4995052;28;20339;-42
2023/07/22 08:29:18;;;;;;;;;;;18.90;99.90;;;;;;4993240;28;19922;-42
2023/07/22 08:31:44;;;;;;;;;;;18.80;99.90;;;;;;4993103;28;20433;-42
2023/07/22 08:34:12;;;;;;;;;;;18.80;99.90;;;;;;4976205;28;19977;-42
2023/07/22 08:36:39;;;;;;;;;;;18.80;99.90;;;;;;4993007;28;19922;-42
2023/07/22 08:39:07;;;;;;;;;;;18.70;99.90;;;;;;4995308;28;20271;-42
2023/07/22 08:41:34;;;;;;;;;;;18.70;99.90;;;;;;4987330;28;19986;-42
2023/07/22 08:44:00;;;;;;;;;;;18.60;99.90;;;;;;4961089;28;19922;-42
2023/07/22 08:46:28;;;;;;;;;;;18.70;99.90;;;;;;4949164;28;20286;-42
2023/07/22 08:48:55;;;;;;;;;;;18.70;99.90;;;;;;4956931;28;19930;-42
2023/07/22 08:51:23;;;;;;;;;;;18.70;99.90;;;;;;4975347;28;20357;-42
2023/07/22 08:53:49;;;;;;;;;;;18.70;99.90;;;;;;4974476;28;20396;-42
2023/07/22 08:56:16;;;;;;;;;;;18.70;99.90;;;;;;4973994;28;19922;-42
2023/07/22 08:58:43;;;;;;;;;;;18.60;99.90;;;;;;4973900;28;20342;-42
2023/07/22 09:01:10;;;;;;;;;;;18.50;99.90;;;;;;4973817;28;20385;-42
2023/07/22 09:03:37;;;;;;;;;;;18.40;99.90;;;;;;4975469;28;19981;-41
2023/07/22 09:06:05;;;;;;;;;;;18.40;99.90;;;;;;4973412;28;19922;-42
2023/07/22 09:08:33;;;;;;;;;;;18.30;99.90;;;;;;4974207;28;19933;-41
2023/07/22 09:10:59;;;;;;;;;;;18.20;99.90;;;;;;4972576;28;19922;-42
2023/07/22 09:13:26;;;;;;;;;;;18.10;99.90;;;;;;4973422;28;20368;-42
2023/07/22 09:15:53;;;;;;;;;;;18.00;99.90;;;;;;4973192;28;19977;-42
2023/07/22 09:18:20;;;;;;;;;;;18.00;99.90;;;;;;4957986;28;19929;-42
2023/07/22 09:20:47;;;;;;;;;;;18.00;99.90;;;;;;4972222;28;20020;-42
2023/07/22 09:23:15;;;;;;;;;;;18.00;99.90;;;;;;4971121;28;20386;-42
2023/07/22 09:25:44;;;;;;;;;;;18.00;99.90;;;;;;4956680;28;20012;-42
2023/07/22 09:28:10;;;;;;;;;;;18.00;99.90;;;;;;4972109;28;19922;-41
2023/07/22 09:30:38;;;;;;;;;;;18.10;99.90;;;;;;4974532;28;20422;-42
2023/07/22 09:33:05;;;;;;;;;;;18.20;99.90;;;;;;4957009;28;20290;-42
2023/07/22 09:35:33;;;;;;;;;;;18.30;99.90;;;;;;4973635;28;19929;-42
2023/07/22 09:37:59;;;;;;;;;;;18.30;99.90;;;;;;4973740;28;19934;-42
2023/07/22 09:40:26;;;;;;;;;;;18.40;99.90;;;;;;4956093;28;19922;-42
2023/07/22 09:42:55;;;;;;;;;;;18.50;99.90;;;;;;4974407;28;19934;-42
2023/07/22 09:45:22;;;;;;;;;;;18.60;99.90;;;;;;4968640;28;19922;-41
2023/07/22 09:47:49;;;;;;;;;;;18.70;99.90;;;;;;4975344;28;19997;-42
2023/07/22 09:50:16;;;;;;;;;;;18.70;99.90;;;;;;4992120;28;19921;-42
2023/07/22 09:52:47;;;;;;;;;;;18.80;99.90;;;;;;4991648;28;19928;-41
2023/07/22 09:55:15;;;;;;;;;;;18.80;99.90;;;;;;4991548;28;20366;-42
2023/07/22 09:57:43;;;;;;;;;;;18.80;99.90;;;;;;4973723;28;19961;-42
2023/07/22 10:00:11;;;;;;;;;;;18.80;99.90;;;;;;4974885;28;19926;-42
2023/07/22 10:02:38;;;;;;;;;;;18.80;99.90;;;;;;4973566;28;19925;-42
2023/07/22 10:05:05;;;;;;;;;;;18.90;99.90;;;;;;4975171;28;19926;-42
2023/07/22 10:07:33;;;;;;;;;;;18.90;99.90;;;;;;4992402;28;20341;-42
2023/07/22 10:09:59;;;;;;;;;;;18.90;99.90;;;;;;4992892;28;19929;-41
2023/07/22 10:12:26;;;;;;;;;;;18.90;99.90;;;;;;4974075;28;20016;-42
2023/07/22 10:14:53;;;;;;;;;;;18.90;99.90;;;;;;4991743;28;19928;-42
2023/07/22 10:17:22;;;;;;;;;;;18.80;99.90;;;;;;4991822;28;19921;-42
2023/07/22 10:19:48;;;;;;;;;;;18.80;99.90;;;;;;4991884;28;19933;-42
2023/07/22 10:22:15;;;;;;;;;;;18.70;99.90;;;;;;4976100;28;19929;-42
2023/07/22 10:24:42;;;;;;;;;;;18.70;99.90;;;;;;4991190;28;19921;-42
2023/07/22 10:27:08;;;;;;;;;;;18.60;99.90;;;;;;4991098;28;19921;-41
2023/07/22 10:29:35;;;;;;;;;;;18.60;99.90;;;;;;4991513;28;19921;-41
2023/07/22 10:32:02;;;;;;;;;;;18.60;99.90;;;;;;4987848;28;19925;-42
2023/07/22 10:34:30;;;;;;;;;;;18.50;99.90;;;;;;4972899;28;19928;-42
2023/07/22 10:36:57;;;;;;;;;;;18.50;99.90;;;;;;4985447;28;19968;-42
2023/07/22 10:39:26;;;;;;;;;;;18.40;99.90;;;;;;4989178;28;19945;-43
2023/07/22 10:41:58;;;;;;;;;;;18.50;99.90;;;;;;4997027;28;19921;-42
2023/07/22 10:44:26;;;;;;;;;;;18.50;99.90;;;;;;4979088;28;19921;-43
2023/07/22 10:46:57;;;;;;;;;;;18.50;99.90;;;;;;4982329;28;19993;-43
2023/07/22 10:49:24;;;;;;;;;;;18.50;99.90;;;;;;4979654;28;19921;-43
2023/07/22 10:51:52;;;;;;;;;;;18.50;99.90;;;;;;4983028;28;19922;-42
2023/07/22 10:54:31;;;;;;;;;;;18.50;99.90;;;;;;4988115;28;20435;-42
2023/07/22 10:56:58;;;;;;;;;;;18.50;99.90;;;;;;4995274;28;19961;-42
2023/07/22 10:59:27;;;;;;;;;;;18.40;99.90;;;;;;4963025;28;19968;-41
2023/07/22 11:01:54;;;;;;;;;;;18.40;99.90;;;;;;4980550;28;19921;-41
2023/07/22 11:04:30;;;;;;;;;;;18.40;99.90;;;;;;4979328;28;19929;-42
2023/07/22 11:06:58;;;;;;;;;;;18.30;99.90;;;;;;4985043;28;19922;-42
2023/07/22 11:09:35;;;;;;;;;;;18.30;99.90;;;;;;4959955;28;20337;-41
2023/07/22 11:12:02;;;;;;;;;;;18.30;99.90;;;;;;4976627;28;19922;-41
2023/07/22 11:14:30;;;;;;;;;;;18.20;99.90;;;;;;4973088;28;20030;-41
2023/07/22 11:16:57;;;;;;;;;;;18.20;99.90;;;;;;4970169;28;19922;-41
2023/07/22 11:19:24;;;;;;;;;;;18.10;99.90;;;;;;4980746;28;19953;-42
2023/07/22 11:21:51;;;;;;;;;;;18.00;99.90;;;;;;4978337;28;19956;-41
2023/07/22 11:24:19;;;;;;;;;;;17.90;99.90;;;;;;4977152;28;19950;-42
2023/07/22 11:26:46;;;;;;;;;;;17.90;99.90;;;;;;4974145;28;19925;-42
2023/07/22 11:29:13;;;;;;;;;;;17.80;99.90;;;;;;4974919;28;19969;-42
2023/07/22 11:31:42;;;;;;;;;;;17.80;99.90;;;;;;4982926;28;19929;-41
2023/07/22 11:34:09;;;;;;;;;;;17.80;99.90;;;;;;4966021;28;19922;-42
2023/07/22 11:36:35;;;;;;;;;;;17.80;99.90;;;;;;4979006;28;20281;-41
2023/07/22 11:39:02;;;;;;;;;;;17.80;99.90;;;;;;4977746;28;19922;-42
2023/07/22 11:41:31;;;;;;;;;;;17.80;99.90;;;;;;4977127;28;20313;-43
2023/07/22 11:43:58;;;;;;;;;;;17.80;99.90;;;;;;4993899;28;19921;-43
2023/07/22 11:46:25;;;;;;;;;;;17.80;99.90;;;;;;4985855;28;19930;-42
2023/07/22 11:48:52;;;;;;;;;;;17.80;99.90;;;;;;4978535;28;20366;-43
2023/07/22 11:51:19;;;;;;;;;;;17.70;99.90;;;;;;4976127;28;19976;-42
2023/07/22 11:53:47;;;;;;;;;;;17.70;99.90;;;;;;4994095;28;19921;-42
2023/07/22 11:56:16;;;;;;;;;;;17.70;99.90;;;;;;4994242;28;20346;-42
2023/07/22 11:58:44;;;;;;;;;;;17.70;99.90;;;;;;4992855;28;19926;-42
2023/07/22 12:01:11;;;;;;;;;;;17.70;99.90;;;;;;4994790;28;19944;-42
2023/07/22 12:03:38;;;;;;;;;;;17.70;99.90;;;;;;4992984;28;20289;-42
2023/07/22 12:06:04;;;;;;;;;;;17.70;99.90;;;;;;4976704;28;19928;-42
2023/07/22 12:08:31;;;;;;;;;;;17.80;99.90;;;;;;4992844;28;19932;-42
2023/07/22 12:10:58;;;;;;;;;;;17.80;99.90;;;;;;4995655;28;19921;-42
2023/07/22 12:13:25;;;;;;;;;;;17.80;99.90;;;;;;4978195;28;19922;-41
2023/07/22 12:16:01;;;;;;;;;;;17.80;99.90;;;;;;4978510;28;20358;-41
2023/07/22 12:18:28;;;;;;;;;;;17.80;99.90;;;;;;4978332;28;20382;-42
2023/07/22 12:20:54;;;;;;;;;;;17.80;99.90;;;;;;4991647;28;19921;-42
2023/07/22 12:23:22;;;;;;;;;;;17.80;99.90;;;;;;4977993;28;19926;-42
2023/07/22 12:25:49;;;;;;;;;;;17.80;99.90;;;;;;4993030;28;19984;-41
2023/07/22 12:28:16;;;;;;;;;;;17.80;99.90;;;;;;4995125;28;20170;-42
2023/07/22 12:30:43;;;;;;;;;;;17.80;99.90;;;;;;4974355;28;19921;-42
2023/07/22 12:33:11;;;;;;;;;;;17.80;99.90;;;;;;4995578;28;20217;-42
2023/07/22 12:35:37;;;;;;;;;;;17.80;99.90;;;;;;4993250;28;20435;-42
2023/07/22 12:38:04;;;;;;;;;;;17.80;99.90;;;;;;4992615;28;19922;-43
2023/07/22 12:40:31;;;;;;;;;;;17.70;99.90;;;;;;4993076;28;19929;-43
2023/07/22 12:42:57;;;;;;;;;;;17.70;99.90;;;;;;4994866;28;19976;-42
2023/07/22 12:45:24;;;;;;;;;;;17.60;99.90;;;;;;4972322;28;19930;-42
2023/07/22 12:47:51;;;;;;;;;;;17.60;99.90;;;;;;4977254;28;19926;-42
2023/07/22 12:50:19;;;;;;;;;;;17.60;99.90;;;;;;4975837;28;19976;-43
2023/07/22 12:52:46;;;;;;;;;;;17.60;99.90;;;;;;4993135;28;19922;-43
2023/07/22 12:55:12;;;;;;;;;;;17.60;99.90;;;;;;4994754;28;19926;-42
2023/07/22 12:57:39;;;;;;;;;;;17.60;99.90;;;;;;4992590;28;19929;-43
2023/07/22 13:00:09;;;;;;;;;;;17.50;99.90;;;;;;4992133;28;19927;-42
2023/07/22 13:02:36;;;;;;;;;;;17.50;99.90;;;;;;4994335;28;20301;-41
2023/07/22 13:05:03;;;;;;;;;;;17.40;99.90;;;;;;4977578;28;19921;-42
2023/07/22 13:07:31;;;;;;;;;;;17.40;99.90;;;;;;4976508;28;19929;-42
2023/07/22 13:10:00;;;;;;;;;;;17.30;99.90;;;;;;4957337;28;19977;-42
2023/07/22 13:12:26;;;;;;;;;;;17.20;99.90;;;;;;4994159;28;19921;-43
2023/07/22 13:14:53;;;;;;;;;;;17.20;99.90;;;;;;4994497;28;19926;-42
2023/07/22 13:17:20;;;;;;;;;;;17.20;99.90;;;;;;4971753;28;19922;-43
2023/07/22 13:19:47;;;;;;;;;;;17.20;99.90;;;;;;4958028;28;19921;-43
2023/07/22 13:22:14;;;;;;;;;;;17.20;99.90;;;;;;4975164;28;19930;-43
2023/07/22 13:24:42;;;;;;;;;;;17.20;99.90;;;;;;4974046;28;19928;-43
2023/07/22 13:27:08;;;;;;;;;;;17.20;99.90;;;;;;4955306;29;20017;-42
2023/07/22 13:29:36;;;;;;;;;;;17.30;99.90;;;;;;4966275;28;19929;-43
2023/07/22 13:32:04;;;;;;;;;;;17.30;99.90;;;;;;4993292;28;19922;-43
2023/07/22 13:34:30;;;;;;;;;;;17.30;99.90;;;;;;4977031;28;19925;-42
2023/07/22 13:36:57;;;;;;;;;;;17.40;99.90;;;;;;4988417;28;19922;-42
2023/07/22 13:39:24;;;;;;;;;;;17.50;99.90;;;;;;4965732;28;19925;-41
2023/07/22 13:41:52;;;;;;;;;;;17.50;99.90;;;;;;4991734;28;19929;-42
2023/07/22 13:44:18;;;;;;;;;;;17.60;99.90;;;;;;4993592;28;20019;-42
2023/07/22 13:46:45;;;;;;;;;;;17.60;99.90;;;;;;4980382;28;20379;-42
2023/07/22 13:49:12;;;;;;;;;;;17.70;99.90;;;;;;4992492;28;20469;-41
2023/07/22 13:51:38;;;;;;;;;;;17.70;99.90;;;;;;4993846;28;19969;-42
2023/07/22 13:54:05;;;;;;;;;;;17.80;99.90;;;;;;4991181;28;20365;-42
2023/07/22 13:56:32;;;;;;;;;;;17.90;99.90;;;;;;4991820;28;19922;-41
2023/07/22 13:59:00;;;;;;;;;;;17.90;99.90;;;;;;4987803;28;19976;-42
2023/07/22 14:01:27;;;;;;;;;;;18.00;99.90;;;;;;4975227;28;19922;-42
2023/07/22 14:03:57;;;;;;;;;;;18.00;99.90;;;;;;4991690;28;19930;-42
2023/07/22 14:06:24;;;;;;;;;;;18.10;99.90;;;;;;4974591;28;19932;-42
2023/07/22 14:08:51;;;;;;;;;;;18.20;99.90;;;;;;4973721;28;19933;-42
2023/07/22 14:11:18;;;;;;;;;;;18.20;99.90;;;;;;4988869;28;20286;-42
2023/07/22 14:13:44;;;;;;;;;;;18.20;99.90;;;;;;4973734;28;19944;-42
2023/07/22 14:16:13;;;;;;;;;;;18.10;99.90;;;;;;4992699;28;19926;-43